Alice Theresa — OXCZ2 — position and weather

sailwx.info

Track history (hours):
 
Tides and Currents Weather Stations Pressure Air Temp Water Temp Dewpoint Dewpoint Depression Visibility Wind Speed Wind Dir Waves Ship Positions

Alice Theresa

Last reported at 2018-Apr-24 03:44 UTC. Time now 2018-Apr-24 22:51 UTC.
Position N 27°44' W 015°16'.

Length 102 m; draft 7.4 m.

Type: Ship (hazmat cat B). MMSI: 219148000.

Date/timePositionNaut miles runAvg speedWind from/ knotsBaromVisibWave heightAir tempDewpointWater temp
2018-Apr-24 03:44N 27°44' W 015°16'312.5
2018-Apr-24 03:30N 27°46' W 015°16'612.5
2018-Apr-24 03:00N 27°53' W 015°15'612.3
2018-Apr-24 02:30N 27°59' W 015°16'611.7
2018-Apr-24 02:00N 28°04' W 015°20'611.1
2018-Apr-24 01:30N 28°07' W 015°24'2 3.1
2018-Apr-24 01:00N 28°08' W 015°25'0 0.0
2018-Apr-24 00:30N 28°08' W 015°25'0 0.0
2018-Apr-24 00:00N 28°08' W 015°25'0 0.0
2018-Apr-23 23:30N 28°08' W 015°25'0 0.0
2018-Apr-23 22:57N 28°08' W 015°25'0 0.0
2018-Apr-23 22:30N 28°08' W 015°25'0 0.0
2018-Apr-23 22:00N 28°08' W 015°25'0 0.0
2018-Apr-23 21:30N 28°08' W 015°25'0 0.0
2018-Apr-23 21:00N 28°08' W 015°25'0 0.0
2018-Apr-23 20:30N 28°08' W 015°25'0 0.0
2018-Apr-23 20:00N 28°08' W 015°25'0 0.0
2018-Apr-23 19:30N 28°08' W 015°25'0 0.0
2018-Apr-23 19:00N 28°08' W 015°25'0 0.0
2018-Apr-23 18:30N 28°08' W 015°25'0 0.0
2018-Apr-23 18:00N 28°08' W 015°25'0 0.0
2018-Apr-23 17:30N 28°08' W 015°25'0 0.0
2018-Apr-23 17:00N 28°08' W 015°25'0 0.0
2018-Apr-23 16:29N 28°08' W 015°25'0 0.0
2018-Apr-23 15:51N 28°08' W 015°25'0 0.0
2018-Apr-23 15:21N 28°08' W 015°25'0 0.0
2018-Apr-23 14:54N 28°08' W 015°25'0 0.0
2018-Apr-23 14:24N 28°08' W 015°25'0 0.0
2018-Apr-23 13:54N 28°08' W 015°25'0 0.0
2018-Apr-23 13:30N 28°08' W 015°25'1 2.4
2018-Apr-23 13:00N 28°07' W 015°25'3 7.0
2018-Apr-23 12:30N 28°10' W 015°22'611.7
2018-Apr-23 12:00N 28°16' W 015°21'612.0
2018-Apr-23 11:30N 28°21' W 015°19'611.8
2018-Apr-23 11:00N 28°27' W 015°17'611.7
2018-Apr-23 10:28N 28°33' W 015°15'611.6
2018-Apr-23 09:58N 28°39' W 015°14'  
2018-Apr-18 00:17N 49°50' W 003°26'510.8
2018-Apr-17 23:51N 49°52' W 003°20'610.2
2018-Apr-17 23:18N 49°54' W 003°12'3 9.4
2018-Apr-17 22:59N 49°56' W 003°08'4 9.0
2018-Apr-17 22:30N 49°57' W 003°02'4 8.3
2018-Apr-17 22:00N 49°59' W 002°56'8 6.9
2018-Apr-17 20:55N 50°02' W 002°45'2 6.0
2018-Apr-17 20:30N 50°02' W 002°41'9 6.0
2018-Apr-17 19:00N 50°05' W 002°28'6 7.1
2018-Apr-17 18:12N 50°08' W 002°20'2 8.3
2018-Apr-17 18:00N 50°09' W 002°18'4511.8
2018-Apr-17 14:13N 50°29' W 001°16'313.3
2018-Apr-17 14:00N 50°30' W 001°12'613.3
2018-Apr-17 13:30N 50°33' W 001°02'610.6
2018-Apr-17 12:55N 50°39' W 000°59'4 9.9
2018-Apr-17 12:30N 50°43' W 000°59'4 8.6
2018-Apr-17 12:00N 50°45' W 001°06'510.4
2018-Apr-17 11:30N 50°47' W 001°13'5 9.8
2018-Apr-17 11:00N 50°50' W 001°19'1 1.2
2018-Apr-17 10:24N 50°50' W 001°20'0 0.0
2018-Apr-17 09:54N 50°50' W 001°20'0 0.0
2018-Apr-17 09:27N 50°50' W 001°20'0 0.0
2018-Apr-17 08:57N 50°50' W 001°20'0 0.0
2018-Apr-17 08:27N 50°50' W 001°20'0 0.0
2018-Apr-17 07:57N 50°50' W 001°20'0 0.0
2018-Apr-17 07:27N 50°50' W 001°20'0 0.0
2018-Apr-17 07:00N 50°50' W 001°20'0 0.0
2018-Apr-17 06:30N 50°50' W 001°20'0 0.0
2018-Apr-17 05:57N 50°50' W 001°20'0 0.0
2018-Apr-17 05:30N 50°50' W 001°20'0 0.0
2018-Apr-17 04:57N 50°50' W 001°20'0 0.0
2018-Apr-17 04:30N 50°50' W 001°20'0 0.0
2018-Apr-17 04:00N 50°50' W 001°20'0 0.0
2018-Apr-17 03:30N 50°50' W 001°20'0 0.0
2018-Apr-17 03:00N 50°50' W 001°20'0 0.0
2018-Apr-17 02:27N 50°50' W 001°20'0 0.0
2018-Apr-17 02:00N 50°50' W 001°20'0 0.0
2018-Apr-17 01:30N 50°50' W 001°20'0 0.0
2018-Apr-17 01:00N 50°50' W 001°20'0 0.0
2018-Apr-17 00:30N 50°50' W 001°20'0 0.0
2018-Apr-17 00:00N 50°50' W 001°20'0 0.0
2018-Apr-16 23:21N 50°50' W 001°20'0 0.0
2018-Apr-16 23:00N 50°50' W 001°20'0 0.0
2018-Apr-16 22:21N 50°50' W 001°20'0 0.0
2018-Apr-16 21:51N 50°50' W 001°20'0 0.0
2018-Apr-16 21:21N 50°50' W 001°20'0 0.0
2018-Apr-16 20:54N 50°50' W 001°20'0 0.0
2018-Apr-16 20:24N 50°50' W 001°20'0 0.0
2018-Apr-16 19:54N 50°50' W 001°20'0 0.0
2018-Apr-16 19:24N 50°50' W 001°20'0 0.0
2018-Apr-16 18:54N 50°50' W 001°20'0 0.0
2018-Apr-16 18:24N 50°50' W 001°20'0 0.0
2018-Apr-16 17:57N 50°50' W 001°20'0 0.0
2018-Apr-16 17:27N 50°50' W 001°20'0 0.0
2018-Apr-16 16:57N 50°50' W 001°20'0 0.0
2018-Apr-16 16:27N 50°50' W 001°20'0 0.0
2018-Apr-16 15:57N 50°50' W 001°20'0 0.0
2018-Apr-16 15:27N 50°50' W 001°20'0 0.0
2018-Apr-16 14:57N 50°50' W 001°20'0 0.0
2018-Apr-16 14:30N 50°50' W 001°20'0 0.0
2018-Apr-16 14:00N 50°50' W 001°20'0 0.0
2018-Apr-16 13:30N 50°50' W 001°20'0 0.0
2018-Apr-16 12:57N 50°50' W 001°20'0 0.0
2018-Apr-16 12:30N 50°50' W 001°20'0 0.0
2018-Apr-16 12:00N 50°50' W 001°20'0 0.0
2018-Apr-16 11:30N 50°50' W 001°20'0 0.0
2018-Apr-16 11:00N 50°50' W 001°20'0 0.0
2018-Apr-16 10:30N 50°50' W 001°20'0 0.0
2018-Apr-16 09:57N 50°50' W 001°20'0 0.0
2018-Apr-16 09:30N 50°50' W 001°20'0 0.0
2018-Apr-16 09:00N 50°50' W 001°20'0 0.0
2018-Apr-16 08:21N 50°50' W 001°20'0 0.0
2018-Apr-16 07:51N 50°50' W 001°20'0 0.0
2018-Apr-16 07:30N 50°50' W 001°20'0 0.0
2018-Apr-16 06:51N 50°50' W 001°20'0 0.0
2018-Apr-16 06:21N 50°50' W 001°20'0 0.0
2018-Apr-16 05:51N 50°50' W 001°20'0 0.0
2018-Apr-16 05:24N 50°50' W 001°20'0 0.0
2018-Apr-16 04:54N 50°50' W 001°20'0 0.0
2018-Apr-16 04:24N 50°50' W 001°20'0 0.0
2018-Apr-16 03:54N 50°50' W 001°20'0 0.0
2018-Apr-16 03:24N 50°50' W 001°20'0 0.0
2018-Apr-16 02:57N 50°50' W 001°20'0 0.0
2018-Apr-16 02:27N 50°50' W 001°20'0 0.0
2018-Apr-16 01:57N 50°50' W 001°20'0 0.0
2018-Apr-16 01:27N 50°50' W 001°20'0 0.0
2018-Apr-16 01:01N 50°50' W 001°20'1 2.6
2018-Apr-16 00:31N 50°49' W 001°18'4 7.1
2018-Apr-16 00:00N 50°47' W 001°15'612.9
2018-Apr-15 23:30N 50°45' W 001°05'3 5.4
2018-Apr-15 23:00N 50°43' W 001°02'0 0.5
2018-Apr-15 22:29N 50°42' W 001°02'0 0.0
2018-Apr-15 22:00N 50°42' W 001°02'0 0.0
2018-Apr-15 21:29N 50°42' W 001°02'0 0.0
2018-Apr-15 21:00N 50°42' W 001°02'0 0.0
2018-Apr-15 20:29N 50°42' W 001°02'0 0.1
2018-Apr-15 20:00N 50°42' W 001°02'0 0.1
2018-Apr-15 19:30N 50°42' W 001°02'0 0.0
2018-Apr-15 19:00N 50°42' W 001°02'0 0.0
2018-Apr-15 18:29N 50°42' W 001°02'0 0.0
2018-Apr-15 18:00N 50°42' W 001°02'0 0.0
2018-Apr-15 17:29N 50°42' W 001°02'0 0.0
2018-Apr-15 17:00N 50°42' W 001°02'0 0.0
2018-Apr-15 16:30N 50°42' W 001°02'0 0.1
2018-Apr-15 16:00N 50°42' W 001°02'0 0.1
2018-Apr-15 15:30N 50°42' W 001°02'0 0.0
2018-Apr-15 15:00N 50°42' W 001°02'0 0.0
2018-Apr-15 14:29N 50°42' W 001°02'0 0.1
2018-Apr-15 13:59N 50°42' W 001°02'0 0.1
2018-Apr-15 13:29N 50°42' W 001°03'0 0.0
2018-Apr-15 13:00N 50°42' W 001°03'0 0.0
2018-Apr-15 12:30N 50°42' W 001°03'0 0.0
2018-Apr-15 11:59N 50°42' W 001°03'0 0.0
2018-Apr-15 11:29N 50°42' W 001°03'0 0.0
2018-Apr-15 11:00N 50°42' W 001°02'0 0.1
2018-Apr-15 10:30N 50°42' W 001°02'0 0.0
2018-Apr-15 10:00N 50°42' W 001°02'0 0.0
2018-Apr-15 09:29N 50°42' W 001°02'0 0.0
2018-Apr-15 09:00N 50°42' W 001°02'0 0.1
2018-Apr-15 08:29N 50°42' W 001°02'0 0.1
2018-Apr-15 08:00N 50°42' W 001°02'0 0.1
2018-Apr-15 07:29N 50°42' W 001°02'0 0.1
2018-Apr-15 06:59N 50°42' W 001°02'0 0.0
2018-Apr-15 06:29N 50°42' W 001°02'0 0.0
2018-Apr-15 05:59N 50°42' W 001°02'0 0.0
2018-Apr-15 05:29N 50°42' W 001°02'0 0.0
2018-Apr-15 04:59N 50°42' W 001°02'0 0.0
2018-Apr-15 04:29N 50°42' W 001°02'0 0.2
2018-Apr-15 03:59N 50°42' W 001°02'0 0.1
2018-Apr-15 03:29N 50°42' W 001°02'0 0.0
2018-Apr-15 02:59N 50°42' W 001°02'0 0.0
2018-Apr-15 02:26N 50°42' W 001°02'0 0.0
2018-Apr-15 01:59N 50°42' W 001°02'0 0.0
2018-Apr-15 01:29N 50°42' W 001°02'0 0.1
2018-Apr-15 00:59N 50°42' W 001°03'0 0.0
2018-Apr-15 00:30N 50°42' W 001°03'0 0.0
2018-Apr-14 23:58N 50°42' W 001°03'0 0.0
2018-Apr-14 23:28N 50°42' W 001°03'0 0.0
2018-Apr-14 22:58N 50°42' W 001°03'0 0.0
2018-Apr-14 22:28N 50°42' W 001°02'0 0.0
2018-Apr-14 21:58N 50°42' W 001°02'0 0.0
2018-Apr-14 21:28N 50°42' W 001°02'0 0.0
2018-Apr-14 20:58N 50°42' W 001°02'0 0.0
2018-Apr-14 20:28N 50°42' W 001°02'0 0.1
2018-Apr-14 19:58N 50°42' W 001°03'0 0.2
2018-Apr-14 19:28N 50°42' W 001°02'0 0.0
2018-Apr-14 18:55N 50°42' W 001°02'0 0.0
2018-Apr-14 18:28N 50°42' W 001°02'0 0.0
2018-Apr-14 17:58N 50°42' W 001°02'0 0.0
2018-Apr-14 17:28N 50°42' W 001°02'0 0.0
2018-Apr-14 16:58N 50°42' W 001°02'0 0.1
2018-Apr-14 16:28N 50°42' W 001°02'0 0.1
2018-Apr-14 15:58N 50°42' W 001°02'0 0.0
2018-Apr-14 15:28N 50°42' W 001°02'0 0.0
2018-Apr-14 14:58N 50°42' W 001°02'0 0.0
2018-Apr-14 14:28N 50°42' W 001°02'1 2.0
2018-Apr-14 14:01N 50°43' W 001°01'4 8.6
2018-Apr-14 13:31N 50°40' W 000°56'510.4
2018-Apr-14 13:00N 50°36' W 000°52'612.2
2018-Apr-14 12:31N 50°31' W 000°47'1012.8
2018-Apr-14 11:43N 50°28' W 000°31'513.0
2018-Apr-14 11:19N 50°28' W 000°23'412.3
2018-Apr-14 11:00N 50°29' W 000°17'612.8
2018-Apr-14 10:30N 50°31' W 000°07'612.1
2018-Apr-14 09:59N 50°32' E 000°02'511.5
2018-Apr-14 09:30N 50°34' E 000°10'611.0
2018-Apr-14 09:00N 50°35' E 000°19'510.6
2018-Apr-14 08:31N 50°37' E 000°27'510.4
2018-Apr-14 08:00N 50°38' E 000°35'510.7
2018-Apr-14 07:30N 50°41' E 000°41'510.9
2018-Apr-14 07:01N 50°44' E 000°48'611.2
2018-Apr-14 06:31N 50°48' E 000°56'612.4
2018-Apr-14 05:59N 50°51' E 001°04'713.6
2018-Apr-14 05:28N 50°56' E 001°13'814.3
2018-Apr-14 04:56N 51°01' E 001°22'614.0
2018-Apr-14 04:30N 51°05' E 001°29'713.2
2018-Apr-14 04:00N 51°09' E 001°37'  
Track history (hours):
 
Tides and Currents Weather Stations Pressure Air Temp Water Temp Dewpoint Dewpoint Depression Visibility Wind Speed Wind Dir Waves Ship Positions

Alice Theresa

Last reported at 2018-Apr-24 03:44 UTC. Time now 2018-Apr-24 22:51 UTC.
Position N 27°44' W 015°16'.

Length 102 m; draft 7.4 m.

Type: Ship (hazmat cat B). MMSI: 219148000.

Date/timePositionNaut miles runAvg speedWind from/ knotsBaromVisibWave heightAir tempDewpointWater temp
2018-Apr-24 03:44N 27°44' W 015°16'312.5
2018-Apr-24 03:30N 27°46' W 015°16'612.5
2018-Apr-24 03:00N 27°53' W 015°15'612.3
2018-Apr-24 02:30N 27°59' W 015°16'611.7
2018-Apr-24 02:00N 28°04' W 015°20'611.1
2018-Apr-24 01:30N 28°07' W 015°24'2 3.1
2018-Apr-24 01:00N 28°08' W 015°25'0 0.0
2018-Apr-24 00:30N 28°08' W 015°25'0 0.0
2018-Apr-24 00:00N 28°08' W 015°25'0 0.0
2018-Apr-23 23:30N 28°08' W 015°25'0 0.0
2018-Apr-23 22:57N 28°08' W 015°25'0 0.0
2018-Apr-23 22:30N 28°08' W 015°25'0 0.0
2018-Apr-23 22:00N 28°08' W 015°25'0 0.0
2018-Apr-23 21:30N 28°08' W 015°25'0 0.0
2018-Apr-23 21:00N 28°08' W 015°25'0 0.0
2018-Apr-23 20:30N 28°08' W 015°25'0 0.0
2018-Apr-23 20:00N 28°08' W 015°25'0 0.0
2018-Apr-23 19:30N 28°08' W 015°25'0 0.0
2018-Apr-23 19:00N 28°08' W 015°25'0 0.0
2018-Apr-23 18:30N 28°08' W 015°25'0 0.0
2018-Apr-23 18:00N 28°08' W 015°25'0 0.0
2018-Apr-23 17:30N 28°08' W 015°25'0 0.0
2018-Apr-23 17:00N 28°08' W 015°25'0 0.0
2018-Apr-23 16:29N 28°08' W 015°25'0 0.0
2018-Apr-23 15:51N 28°08' W 015°25'0 0.0
2018-Apr-23 15:21N 28°08' W 015°25'0 0.0
2018-Apr-23 14:54N 28°08' W 015°25'0 0.0
2018-Apr-23 14:24N 28°08' W 015°25'0 0.0
2018-Apr-23 13:54N 28°08' W 015°25'0 0.0
2018-Apr-23 13:30N 28°08' W 015°25'1 2.4
2018-Apr-23 13:00N 28°07' W 015°25'3 7.0
2018-Apr-23 12:30N 28°10' W 015°22'611.7
2018-Apr-23 12:00N 28°16' W 015°21'612.0
2018-Apr-23 11:30N 28°21' W 015°19'611.8
2018-Apr-23 11:00N 28°27' W 015°17'611.7
2018-Apr-23 10:28N 28°33' W 015°15'611.6
2018-Apr-23 09:58N 28°39' W 015°14'  
2018-Apr-18 00:17N 49°50' W 003°26'510.8
2018-Apr-17 23:51N 49°52' W 003°20'610.2
2018-Apr-17 23:18N 49°54' W 003°12'3 9.4
2018-Apr-17 22:59N 49°56' W 003°08'4 9.0
2018-Apr-17 22:30N 49°57' W 003°02'4 8.3
2018-Apr-17 22:00N 49°59' W 002°56'8 6.9
2018-Apr-17 20:55N 50°02' W 002°45'2 6.0
2018-Apr-17 20:30N 50°02' W 002°41'9 6.0
2018-Apr-17 19:00N 50°05' W 002°28'6 7.1
2018-Apr-17 18:12N 50°08' W 002°20'2 8.3
2018-Apr-17 18:00N 50°09' W 002°18'4511.8
2018-Apr-17 14:13N 50°29' W 001°16'313.3
2018-Apr-17 14:00N 50°30' W 001°12'613.3
2018-Apr-17 13:30N 50°33' W 001°02'610.6
2018-Apr-17 12:55N 50°39' W 000°59'4 9.9
2018-Apr-17 12:30N 50°43' W 000°59'4 8.6
2018-Apr-17 12:00N 50°45' W 001°06'510.4
2018-Apr-17 11:30N 50°47' W 001°13'5 9.8
2018-Apr-17 11:00N 50°50' W 001°19'1 1.2
2018-Apr-17 10:24N 50°50' W 001°20'0 0.0
2018-Apr-17 09:54N 50°50' W 001°20'0 0.0
2018-Apr-17 09:27N 50°50' W 001°20'0 0.0
2018-Apr-17 08:57N 50°50' W 001°20'0 0.0
2018-Apr-17 08:27N 50°50' W 001°20'0 0.0
2018-Apr-17 07:57N 50°50' W 001°20'0 0.0
2018-Apr-17 07:27N 50°50' W 001°20'0 0.0
2018-Apr-17 07:00N 50°50' W 001°20'0 0.0
2018-Apr-17 06:30N 50°50' W 001°20'0 0.0
2018-Apr-17 05:57N 50°50' W 001°20'0 0.0
2018-Apr-17 05:30N 50°50' W 001°20'0 0.0
2018-Apr-17 04:57N 50°50' W 001°20'0 0.0
2018-Apr-17 04:30N 50°50' W 001°20'0 0.0
2018-Apr-17 04:00N 50°50' W 001°20'0 0.0
2018-Apr-17 03:30N 50°50' W 001°20'0 0.0
2018-Apr-17 03:00N 50°50' W 001°20'0 0.0
2018-Apr-17 02:27N 50°50' W 001°20'0 0.0
2018-Apr-17 02:00N 50°50' W 001°20'0 0.0
2018-Apr-17 01:30N 50°50' W 001°20'0 0.0
2018-Apr-17 01:00N 50°50' W 001°20'0 0.0
2018-Apr-17 00:30N 50°50' W 001°20'0 0.0
2018-Apr-17 00:00N 50°50' W 001°20'0 0.0
2018-Apr-16 23:21N 50°50' W 001°20'0 0.0
2018-Apr-16 23:00N 50°50' W 001°20'0 0.0
2018-Apr-16 22:21N 50°50' W 001°20'0 0.0
2018-Apr-16 21:51N 50°50' W 001°20'0 0.0
2018-Apr-16 21:21N 50°50' W 001°20'0 0.0
2018-Apr-16 20:54N 50°50' W 001°20'0 0.0
2018-Apr-16 20:24N 50°50' W 001°20'0 0.0
2018-Apr-16 19:54N 50°50' W 001°20'0 0.0
2018-Apr-16 19:24N 50°50' W 001°20'0 0.0
2018-Apr-16 18:54N 50°50' W 001°20'0 0.0
2018-Apr-16 18:24N 50°50' W 001°20'0 0.0
2018-Apr-16 17:57N 50°50' W 001°20'0 0.0
2018-Apr-16 17:27N 50°50' W 001°20'0 0.0
2018-Apr-16 16:57N 50°50' W 001°20'0 0.0
2018-Apr-16 16:27N 50°50' W 001°20'0 0.0
2018-Apr-16 15:57N 50°50' W 001°20'0 0.0
2018-Apr-16 15:27N 50°50' W 001°20'0 0.0
2018-Apr-16 14:57N 50°50' W 001°20'0 0.0
2018-Apr-16 14:30N 50°50' W 001°20'0 0.0
2018-Apr-16 14:00N 50°50' W 001°20'0 0.0
2018-Apr-16 13:30N 50°50' W 001°20'0 0.0
2018-Apr-16 12:57N 50°50' W 001°20'0 0.0
2018-Apr-16 12:30N 50°50' W 001°20'0 0.0
2018-Apr-16 12:00N 50°50' W 001°20'0 0.0
2018-Apr-16 11:30N 50°50' W 001°20'0 0.0
2018-Apr-16 11:00N 50°50' W 001°20'0 0.0
2018-Apr-16 10:30N 50°50' W 001°20'0 0.0
2018-Apr-16 09:57N 50°50' W 001°20'0 0.0
2018-Apr-16 09:30N 50°50' W 001°20'0 0.0
2018-Apr-16 09:00N 50°50' W 001°20'0 0.0
2018-Apr-16 08:21N 50°50' W 001°20'0 0.0
2018-Apr-16 07:51N 50°50' W 001°20'0 0.0
2018-Apr-16 07:30N 50°50' W 001°20'0 0.0
2018-Apr-16 06:51N 50°50' W 001°20'0 0.0
2018-Apr-16 06:21N 50°50' W 001°20'0 0.0
2018-Apr-16 05:51N 50°50' W 001°20'0 0.0
2018-Apr-16 05:24N 50°50' W 001°20'0 0.0
2018-Apr-16 04:54N 50°50' W 001°20'0 0.0
2018-Apr-16 04:24N 50°50' W 001°20'0 0.0
2018-Apr-16 03:54N 50°50' W 001°20'0 0.0
2018-Apr-16 03:24N 50°50' W 001°20'0 0.0
2018-Apr-16 02:57N 50°50' W 001°20'0 0.0
2018-Apr-16 02:27N 50°50' W 001°20'0 0.0
2018-Apr-16 01:57N 50°50' W 001°20'0 0.0
2018-Apr-16 01:27N 50°50' W 001°20'0 0.0
2018-Apr-16 01:01N 50°50' W 001°20'1 2.6
2018-Apr-16 00:31N 50°49' W 001°18'4 7.1
2018-Apr-16 00:00N 50°47' W 001°15'612.9
2018-Apr-15 23:30N 50°45' W 001°05'3 5.4
2018-Apr-15 23:00N 50°43' W 001°02'0 0.5
2018-Apr-15 22:29N 50°42' W 001°02'0 0.0
2018-Apr-15 22:00N 50°42' W 001°02'0 0.0
2018-Apr-15 21:29N 50°42' W 001°02'0 0.0
2018-Apr-15 21:00N 50°42' W 001°02'0 0.0
2018-Apr-15 20:29N 50°42' W 001°02'0 0.1
2018-Apr-15 20:00N 50°42' W 001°02'0 0.1
2018-Apr-15 19:30N 50°42' W 001°02'0 0.0
2018-Apr-15 19:00N 50°42' W 001°02'0 0.0
2018-Apr-15 18:29N 50°42' W 001°02'0 0.0
2018-Apr-15 18:00N 50°42' W 001°02'0 0.0
2018-Apr-15 17:29N 50°42' W 001°02'0 0.0
2018-Apr-15 17:00N 50°42' W 001°02'0 0.0
2018-Apr-15 16:30N 50°42' W 001°02'0 0.1
2018-Apr-15 16:00N 50°42' W 001°02'0 0.1
2018-Apr-15 15:30N 50°42' W 001°02'0 0.0
2018-Apr-15 15:00N 50°42' W 001°02'0 0.0
2018-Apr-15 14:29N 50°42' W 001°02'0 0.1
2018-Apr-15 13:59N 50°42' W 001°02'0 0.1
2018-Apr-15 13:29N 50°42' W 001°03'0 0.0
2018-Apr-15 13:00N 50°42' W 001°03'0 0.0
2018-Apr-15 12:30N 50°42' W 001°03'0 0.0
2018-Apr-15 11:59N 50°42' W 001°03'0 0.0
2018-Apr-15 11:29N 50°42' W 001°03'0 0.0
2018-Apr-15 11:00N 50°42' W 001°02'0 0.1
2018-Apr-15 10:30N 50°42' W 001°02'0 0.0
2018-Apr-15 10:00N 50°42' W 001°02'0 0.0
2018-Apr-15 09:29N 50°42' W 001°02'0 0.0
2018-Apr-15 09:00N 50°42' W 001°02'0 0.1
2018-Apr-15 08:29N 50°42' W 001°02'0 0.1
2018-Apr-15 08:00N 50°42' W 001°02'0 0.1
2018-Apr-15 07:29N 50°42' W 001°02'0 0.1
2018-Apr-15 06:59N 50°42' W 001°02'0 0.0
2018-Apr-15 06:29N 50°42' W 001°02'0 0.0
2018-Apr-15 05:59N 50°42' W 001°02'0 0.0
2018-Apr-15 05:29N 50°42' W 001°02'0 0.0
2018-Apr-15 04:59N 50°42' W 001°02'0 0.0
2018-Apr-15 04:29N 50°42' W 001°02'0 0.2
2018-Apr-15 03:59N 50°42' W 001°02'0 0.1
2018-Apr-15 03:29N 50°42' W 001°02'0 0.0
2018-Apr-15 02:59N 50°42' W 001°02'0 0.0
2018-Apr-15 02:26N 50°42' W 001°02'0 0.0
2018-Apr-15 01:59N 50°42' W 001°02'0 0.0
2018-Apr-15 01:29N 50°42' W 001°02'0 0.1
2018-Apr-15 00:59N 50°42' W 001°03'0 0.0
2018-Apr-15 00:30N 50°42' W 001°03'0 0.0
2018-Apr-14 23:58N 50°42' W 001°03'0 0.0
2018-Apr-14 23:28N 50°42' W 001°03'0 0.0
2018-Apr-14 22:58N 50°42' W 001°03'0 0.0
2018-Apr-14 22:28N 50°42' W 001°02'0 0.0
2018-Apr-14 21:58N 50°42' W 001°02'0 0.0
2018-Apr-14 21:28N 50°42' W 001°02'0 0.0
2018-Apr-14 20:58N 50°42' W 001°02'0 0.0
2018-Apr-14 20:28N 50°42' W 001°02'0 0.1
2018-Apr-14 19:58N 50°42' W 001°03'0 0.2
2018-Apr-14 19:28N 50°42' W 001°02'0 0.0
2018-Apr-14 18:55N 50°42' W 001°02'0 0.0
2018-Apr-14 18:28N 50°42' W 001°02'0 0.0
2018-Apr-14 17:58N 50°42' W 001°02'0 0.0
2018-Apr-14 17:28N 50°42' W 001°02'0 0.0
2018-Apr-14 16:58N 50°42' W 001°02'0 0.1
2018-Apr-14 16:28N 50°42' W 001°02'0 0.1
2018-Apr-14 15:58N 50°42' W 001°02'0 0.0
2018-Apr-14 15:28N 50°42' W 001°02'0 0.0
2018-Apr-14 14:58N 50°42' W 001°02'0 0.0
2018-Apr-14 14:28N 50°42' W 001°02'1 2.0
2018-Apr-14 14:01N 50°43' W 001°01'4 8.6
2018-Apr-14 13:31N 50°40' W 000°56'510.4
2018-Apr-14 13:00N 50°36' W 000°52'612.2
2018-Apr-14 12:31N 50°31' W 000°47'1012.8
2018-Apr-14 11:43N 50°28' W 000°31'513.0
2018-Apr-14 11:19N 50°28' W 000°23'412.3
2018-Apr-14 11:00N 50°29' W 000°17'612.8
2018-Apr-14 10:30N 50°31' W 000°07'612.1
2018-Apr-14 09:59N 50°32' E 000°02'511.5
2018-Apr-14 09:30N 50°34' E 000°10'611.0
2018-Apr-14 09:00N 50°35' E 000°19'510.6
2018-Apr-14 08:31N 50°37' E 000°27'510.4
2018-Apr-14 08:00N 50°38' E 000°35'510.7
2018-Apr-14 07:30N 50°41' E 000°41'510.9
2018-Apr-14 07:01N 50°44' E 000°48'611.2
2018-Apr-14 06:31N 50°48' E 000°56'612.4
2018-Apr-14 05:59N 50°51' E 001°04'713.6
2018-Apr-14 05:28N 50°56' E 001°13'814.3
2018-Apr-14 04:56N 51°01' E 001°22'614.0
2018-Apr-14 04:30N 51°05' E 001°29'713.2
2018-Apr-14 04:00N 51°09' E 001°37'  

Dump ship's entire track history